createdAt,value
2022-09-24T00:01:13.938Z,100865.19
2022-09-24T00:03:45.758Z,100864.69
2022-09-24T00:06:15.035Z,100872.25
2022-09-24T00:08:44.105Z,100866.22
2022-09-24T00:11:12.625Z,100867.94
2022-09-24T00:13:41.258Z,100867.28
2022-09-24T00:16:11.196Z,100859.88
2022-09-24T00:18:39.172Z,100864.03
2022-09-24T00:21:16.064Z,100865.28
2022-09-24T00:23:46.147Z,100865.41
2022-09-24T00:26:31.534Z,100859.94
2022-09-24T00:28:59.945Z,100861.50
2022-09-24T00:31:27.970Z,100856.13
2022-09-24T00:33:56.025Z,100855.25
2022-09-24T00:36:24.147Z,100858.41
2022-09-24T00:38:55.516Z,100862.06
2022-09-24T00:41:26.551Z,100862.63
2022-09-24T00:43:54.773Z,100873.88
2022-09-24T00:46:27.486Z,100870.63
2022-09-24T00:48:59.138Z,100877.69
2022-09-24T00:51:29.605Z,100872.06
2022-09-24T00:54:02.926Z,100880.59
2022-09-24T00:56:31.897Z,100878.59
2022-09-24T00:59:02.444Z,100882.06
2022-09-24T01:01:30.822Z,100880.13
2022-09-24T01:04:00.446Z,100883.97
2022-09-24T01:06:28.526Z,100888.56
2022-09-24T01:08:59.758Z,100889.03
2022-09-24T01:11:39.026Z,100901.22
2022-09-24T01:14:31.366Z,100895.34
2022-09-24T01:17:10.095Z,100899.19
2022-09-24T01:19:55.912Z,100893.19
2022-09-24T01:22:35.374Z,100886.84
2022-09-24T01:25:17.671Z,100883.09
2022-09-24T01:28:03.199Z,100883.75
2022-09-24T01:30:38.149Z,100868.41
2022-09-24T01:33:12.614Z,100870.53
2022-09-24T01:35:45.282Z,100860.81
2022-09-24T01:38:17.878Z,100849.63
2022-09-24T01:40:47.777Z,100844.16
2022-09-24T01:43:18.930Z,100847.88
2022-09-24T01:45:48.782Z,100845.38
2022-09-24T01:48:21.096Z,100849.47
2022-09-24T01:50:56.222Z,100846.00
2022-09-24T01:53:27.898Z,100854.63
2022-09-24T01:56:00.545Z,100847.25
2022-09-24T01:58:34.081Z,100852.25
2022-09-24T02:01:09.085Z,100840.94
2022-09-24T02:03:43.548Z,100838.91
2022-09-24T02:06:15.902Z,100836.69
2022-09-24T02:08:46.998Z,100843.91
2022-09-24T02:11:17.608Z,100840.13
2022-09-24T02:13:51.413Z,100842.53
2022-09-24T02:16:25.847Z,100834.28
2022-09-24T02:18:57.986Z,100841.56
2022-09-24T02:21:27.191Z,100839.34
2022-09-24T02:24:00.979Z,100848.63
2022-09-24T02:26:28.772Z,100849.22
2022-09-24T02:28:56.561Z,100846.91
2022-09-24T02:31:30.921Z,100843.81
2022-09-24T02:34:20.028Z,100842.50
2022-09-24T02:36:47.829Z,100838.44
2022-09-24T02:39:17.384Z,100832.59
2022-09-24T02:41:48.137Z,100834.69
2022-09-24T02:44:16.497Z,100827.63
2022-09-24T02:46:45.640Z,100826.84
2022-09-24T02:49:14.144Z,100829.31
2022-09-24T02:51:41.990Z,100818.66
2022-09-24T02:54:10.446Z,100814.66
2022-09-24T02:56:38.762Z,100814.94
2022-09-24T02:59:07.649Z,100808.28
2022-09-24T03:01:36.016Z,100812.88
2022-09-24T03:04:05.510Z,100810.44
2022-09-24T03:06:34.063Z,100813.34
2022-09-24T03:09:02.234Z,100808.63
2022-09-24T03:11:32.957Z,100806.69
2022-09-24T03:14:01.318Z,100803.91
2022-09-24T03:16:29.115Z,100805.72
2022-09-24T03:18:56.897Z,100809.03
2022-09-24T03:21:25.933Z,100806.53
2022-09-24T03:23:53.652Z,100814.56
2022-09-24T03:26:21.435Z,100819.44
2022-09-24T03:28:49.115Z,100813.06
2022-09-24T03:31:15.994Z,100803.06
2022-09-24T03:33:47.085Z,100806.59
2022-09-24T03:36:16.746Z,100807.94
2022-09-24T03:38:46.725Z,100805.97
2022-09-24T03:41:14.561Z,100808.03
2022-09-24T03:43:42.547Z,100800.69
2022-09-24T03:46:16.085Z,100808.44
2022-09-24T03:48:45.238Z,100804.13
2022-09-24T03:51:14.792Z,100796.91
2022-09-24T03:53:43.090Z,100803.53
2022-09-24T03:56:12.791Z,100800.22
2022-09-24T03:58:41.921Z,100802.13
2022-09-24T04:01:12.899Z,100805.34
2022-09-24T04:03:41.141Z,100799.16
2022-09-24T04:06:08.978Z,100794.19
2022-09-24T04:08:36.697Z,100801.50
2022-09-24T04:11:04.433Z,100805.72
2022-09-24T04:13:33.552Z,100803.03
2022-09-24T04:16:02.936Z,100806.47
2022-09-24T04:18:32.140Z,100803.47
2022-09-24T04:21:01.731Z,100801.56
2022-09-24T04:23:31.386Z,100809.50
2022-09-24T04:26:02.066Z,100806.81
2022-09-24T04:28:30.954Z,100808.34
2022-09-24T04:31:00.282Z,100822.59
2022-09-24T04:33:28.221Z,100804.19
2022-09-24T04:35:55.962Z,100805.13
2022-09-24T04:38:24.081Z,100810.50
2022-09-24T04:40:51.916Z,100808.13
2022-09-24T04:43:20.044Z,100804.47
2022-09-24T04:45:48.122Z,100811.56
2022-09-24T04:48:17.242Z,100808.06
2022-09-24T04:50:46.515Z,100811.22
2022-09-24T04:53:14.833Z,100811.88
2022-09-24T04:55:42.678Z,100814.03
2022-09-24T04:58:11.159Z,100809.69
2022-09-24T05:00:39.494Z,100808.03
2022-09-24T05:03:07.289Z,100810.53
2022-09-24T05:05:36.838Z,100821.19
2022-09-24T05:08:04.914Z,100818.34
2022-09-24T05:10:33.579Z,100825.63
2022-09-24T05:13:02.092Z,100826.66
2022-09-24T05:15:29.994Z,100829.94
2022-09-24T05:17:57.764Z,100835.09
2022-09-24T05:20:25.659Z,100831.00
2022-09-24T05:22:55.122Z,100829.94
2022-09-24T05:25:23.643Z,100831.53
2022-09-24T05:27:52.470Z,100845.47
2022-09-24T05:30:21.813Z,100843.53
2022-09-24T05:32:52.310Z,100849.81
2022-09-24T05:35:20.562Z,100851.88
2022-09-24T05:37:49.573Z,100842.50
2022-09-24T05:40:36.381Z,100854.00
2022-09-24T05:43:05.289Z,100850.47
2022-09-24T05:45:33.609Z,100854.00
2022-09-24T05:48:01.512Z,100854.75
2022-09-24T05:50:29.357Z,100863.78
2022-09-24T05:52:57.134Z,100867.63
2022-09-24T05:55:31.416Z,100868.19
2022-09-24T05:58:04.039Z,100866.38
2022-09-24T06:00:31.842Z,100864.34
2022-09-24T06:03:04.678Z,100876.66
2022-09-24T06:05:32.939Z,100878.59
2022-09-24T06:08:00.602Z,100885.19
2022-09-24T06:10:29.729Z,100884.91
2022-09-24T06:12:57.726Z,100893.44
2022-09-24T06:15:27.160Z,100902.47
2022-09-24T06:17:55.609Z,100895.91
2022-09-24T06:20:23.913Z,100899.75
2022-09-24T06:22:51.582Z,100896.22
2022-09-24T06:25:19.253Z,100901.19
2022-09-24T06:27:58.226Z,100900.88
2022-09-24T06:30:25.878Z,100901.88
2022-09-24T06:32:53.794Z,100907.06
2022-09-24T06:35:21.633Z,100904.19
2022-09-24T06:37:50.109Z,100901.66
2022-09-24T06:40:17.954Z,100902.78
2022-09-24T06:42:45.735Z,100905.72
2022-09-24T06:45:15.156Z,100910.13
2022-09-24T06:47:42.894Z,100912.63
2022-09-24T06:50:10.986Z,100921.75
2022-09-24T06:52:38.679Z,100918.84
2022-09-24T06:55:07.278Z,100919.94
2022-09-24T06:57:34.943Z,100918.00
2022-09-24T07:00:02.998Z,100921.75
2022-09-24T07:02:32.136Z,100926.66
2022-09-24T07:04:59.882Z,100930.06
2022-09-24T07:07:30.500Z,100925.25
2022-09-24T07:09:58.450Z,100932.16
2022-09-24T07:12:26.177Z,100941.72
2022-09-24T07:14:53.896Z,100940.56
2022-09-24T07:17:21.665Z,100936.50
2022-09-24T07:19:50.825Z,100931.22
2022-09-24T07:22:18.913Z,100928.38
2022-09-24T07:24:47.142Z,100932.00
2022-09-24T07:27:15.348Z,100938.16
2022-09-24T07:29:43.459Z,100931.34
2022-09-24T07:32:11.136Z,100936.97
2022-09-24T07:34:38.850Z,100932.44
2022-09-24T07:37:07.885Z,100930.72
2022-09-24T07:39:35.802Z,100932.94
2022-09-24T07:42:03.644Z,100939.88
2022-09-24T07:44:31.571Z,100939.53
2022-09-24T07:46:59.344Z,100944.59
2022-09-24T07:49:28.981Z,100943.63
2022-09-24T07:51:56.808Z,100949.16
2022-09-24T07:54:26.277Z,100948.38
2022-09-24T07:56:54.299Z,100958.19
2022-09-24T07:59:22.037Z,100954.81
2022-09-24T08:01:49.749Z,100955.03
2022-09-24T08:04:18.196Z,100958.38
2022-09-24T08:06:47.721Z,100956.22
2022-09-24T08:09:16.730Z,100966.13
2022-09-24T08:11:45.959Z,100960.72
2022-09-24T08:14:13.674Z,100960.31
2022-09-24T08:16:41.393Z,100963.53
2022-09-24T08:19:13.983Z,100953.88
2022-09-24T08:21:41.734Z,100966.78
2022-09-24T08:24:09.492Z,100955.38
2022-09-24T08:26:37.256Z,100962.88
2022-09-24T08:29:06.293Z,100972.63
2022-09-24T08:31:35.137Z,100976.78
2022-09-24T08:34:02.894Z,100980.56
2022-09-24T08:36:30.595Z,100983.59
2022-09-24T08:38:59.049Z,100991.31
2022-09-24T08:41:46.986Z,100987.06
2022-09-24T08:44:41.638Z,100987.25
2022-09-24T08:47:24.333Z,100991.25
2022-09-24T08:49:59.343Z,100999.22
2022-09-24T08:52:37.197Z,100999.34
2022-09-24T08:55:09.877Z,100998.44
2022-09-24T08:57:43.602Z,100999.09
2022-09-24T09:00:16.778Z,101002.47
2022-09-24T09:02:55.652Z,101004.25
2022-09-24T09:05:32.606Z,101010.50
2022-09-24T09:08:05.333Z,101009.13
2022-09-24T09:10:43.363Z,101008.28
2022-09-24T09:13:16.487Z,101018.56
2022-09-24T09:15:51.116Z,101021.84
2022-09-24T09:18:24.555Z,101023.56
2022-09-24T09:20:52.194Z,101026.78
2022-09-24T09:23:21.878Z,101016.34
2022-09-24T09:25:53.639Z,101021.09
2022-09-24T09:28:21.910Z,101029.47
2022-09-24T09:31:06.993Z,101021.78
2022-09-24T09:33:59.690Z,101028.22
2022-09-24T09:36:41.107Z,101025.81
2022-09-24T09:39:23.545Z,101031.53
2022-09-24T09:41:56.800Z,101022.31
2022-09-24T09:44:26.259Z,101023.81
2022-09-24T09:47:06.077Z,101030.75
2022-09-24T09:49:38.833Z,101025.41
2022-09-24T09:52:15.850Z,101030.63
2022-09-24T09:54:44.205Z,101032.44
2022-09-24T09:57:17.039Z,101026.44
2022-09-24T09:59:48.255Z,101027.38
2022-09-24T10:02:25.347Z,101022.41
2022-09-24T10:04:56.086Z,101027.88
2022-09-24T10:07:24.061Z,101019.53
2022-09-24T10:10:02.242Z,101025.88
2022-09-24T10:12:30.421Z,101021.28
2022-09-24T10:15:00.397Z,101022.56
2022-09-24T10:17:34.843Z,101027.50
2022-09-24T10:20:08.533Z,101022.09
2022-09-24T10:22:37.007Z,101028.97
2022-09-24T10:25:05.686Z,101021.25
2022-09-24T10:27:37.142Z,101027.81
2022-09-24T10:30:32.610Z,101021.28
2022-09-24T10:33:03.766Z,101026.34
2022-09-24T10:35:35.546Z,101023.53
2022-09-24T10:38:05.957Z,101026.81
2022-09-24T10:40:41.189Z,101031.72
2022-09-24T10:43:16.717Z,101024.28
2022-09-24T10:46:09.824Z,101016.41
2022-09-24T10:48:45.442Z,101016.03
2022-09-24T10:51:29.008Z,101024.41
2022-09-24T10:54:08.442Z,101015.09
2022-09-24T10:56:45.247Z,101012.16
2022-09-24T10:59:28.952Z,101012.63
2022-09-24T11:02:10.493Z,101013.38
2022-09-24T11:04:51.287Z,101014.22
2022-09-24T11:07:52.575Z,101010.41
2022-09-24T11:10:31.458Z,101022.81
2022-09-24T11:13:09.149Z,101017.19
2022-09-24T11:15:58.759Z,101017.19
2022-09-24T11:18:45.886Z,101019.34
2022-09-24T11:21:31.043Z,101014.38
2022-09-24T11:24:18.259Z,101010.69
2022-09-24T11:26:57.542Z,101010.66
2022-09-24T11:29:41.730Z,101012.50
2022-09-24T11:32:17.882Z,101009.00
2022-09-24T11:35:04.458Z,101011.25
2022-09-24T11:37:51.061Z,101001.94
2022-09-24T11:40:43.639Z,101011.41
2022-09-24T11:43:32.797Z,101017.19
2022-09-24T11:46:14.733Z,101006.38
2022-09-24T11:48:56.586Z,101010.53
2022-09-24T11:51:36.461Z,101009.19
2022-09-24T11:54:13.844Z,101003.13
2022-09-24T11:56:46.197Z,101000.66
2022-09-24T11:59:22.213Z,100998.97
2022-09-24T12:01:55.126Z,100991.28
2022-09-24T12:04:28.861Z,100998.13
2022-09-24T12:07:03.971Z,100991.50
2022-09-24T12:09:38.487Z,100989.84
2022-09-24T12:12:12.750Z,100986.38
2022-09-24T12:14:49.069Z,100988.78
2022-09-24T12:17:22.287Z,100987.41
2022-09-24T12:19:51.618Z,100997.50
2022-09-24T12:22:21.586Z,100988.34
2022-09-24T12:24:53.822Z,100986.38
2022-09-24T12:27:26.878Z,100990.97
2022-09-24T12:30:20.040Z,100981.84
2022-09-24T12:32:57.014Z,100981.59
2022-09-24T12:35:38.451Z,100972.91
2022-09-24T12:38:09.768Z,100975.88
2022-09-24T12:41:11.671Z,100973.91
2022-09-24T12:43:45.223Z,100975.00
2022-09-24T12:46:20.244Z,100980.75
2022-09-24T12:48:49.655Z,100977.91
2022-09-24T12:51:22.198Z,100975.72
2022-09-24T12:54:01.378Z,100972.59
2022-09-24T12:56:31.700Z,100972.66
2022-09-24T12:58:59.771Z,100973.19
2022-09-24T13:01:29.995Z,100966.41
2022-09-24T13:04:07.797Z,100968.25
2022-09-24T13:06:37.656Z,100955.94
2022-09-24T13:09:27.199Z,100966.84
2022-09-24T13:12:19.370Z,100952.84
2022-09-24T13:14:51.561Z,100957.72
2022-09-24T13:17:19.622Z,100961.16
2022-09-24T13:19:48.876Z,100964.28
2022-09-24T13:22:23.764Z,100960.56
2022-09-24T13:24:53.583Z,100959.84
2022-09-24T13:27:25.726Z,100962.72
2022-09-24T13:30:07.948Z,100963.66
2022-09-24T13:32:43.206Z,100962.84
2022-09-24T13:35:21.117Z,100968.19
2022-09-24T13:37:53.271Z,100950.88
2022-09-24T13:40:25.882Z,100954.13
2022-09-24T13:43:01.352Z,100955.31
2022-09-24T13:45:29.709Z,100954.69
2022-09-24T13:47:59.983Z,100949.59
2022-09-24T13:50:32.564Z,100956.88
2022-09-24T13:53:04.074Z,100954.69
2022-09-24T13:55:34.702Z,100953.19
2022-09-24T13:58:03.993Z,100959.91
2022-09-24T14:00:33.043Z,100954.44
2022-09-24T14:03:03.638Z,100954.47
2022-09-24T14:05:35.850Z,100946.75
2022-09-24T14:08:06.980Z,100948.81
2022-09-24T14:10:35.983Z,100959.53
2022-09-24T14:13:17.489Z,100968.06
2022-09-24T14:15:56.270Z,100965.09
2022-09-24T14:18:25.689Z,100966.38
2022-09-24T14:20:58.368Z,100967.91
2022-09-24T14:23:31.383Z,100968.63
2022-09-24T14:26:00.582Z,100975.09
2022-09-24T14:28:32.811Z,100963.50
2022-09-24T14:31:02.115Z,100969.16
2022-09-24T14:33:33.109Z,100965.22
2022-09-24T14:36:03.358Z,100961.34
2022-09-24T14:38:35.234Z,100956.75
2022-09-24T14:41:06.854Z,100963.94
2022-09-24T14:43:44.491Z,100956.81
2022-09-24T14:46:18.482Z,100966.56
2022-09-24T14:48:46.455Z,100955.41
2022-09-24T14:51:26.643Z,100951.88
2022-09-24T14:54:02.074Z,100946.94
2022-09-24T14:56:32.003Z,100951.25
2022-09-24T14:59:01.982Z,100941.25
2022-09-24T15:01:32.975Z,100947.38
2022-09-24T15:04:04.079Z,100940.63
2022-09-24T15:06:33.498Z,100938.91
2022-09-24T15:09:03.930Z,100939.78
2022-09-24T15:11:34.185Z,100936.34
2022-09-24T15:14:15.852Z,100945.53
2022-09-24T15:16:44.547Z,100939.97
2022-09-24T15:19:20.456Z,100936.69
2022-09-24T15:21:49.590Z,100946.00
2022-09-24T15:24:17.640Z,100938.09
2022-09-24T15:26:47.787Z,100936.88
2022-09-24T15:29:24.187Z,100938.16
2022-09-24T15:31:52.196Z,100948.84
2022-09-24T15:34:20.613Z,100940.31
2022-09-24T15:36:48.893Z,100951.78
2022-09-24T15:39:18.870Z,100953.28
2022-09-24T15:41:46.619Z,100945.13
2022-09-24T15:44:21.755Z,100953.91
2022-09-24T15:46:52.015Z,100962.00
2022-09-24T15:49:21.972Z,100955.72
2022-09-24T15:51:51.310Z,100968.28
2022-09-24T15:54:19.093Z,100970.25
2022-09-24T15:56:52.019Z,100974.66
2022-09-24T15:59:20.761Z,100974.88
2022-09-24T16:01:52.171Z,100972.94
2022-09-24T16:04:20.186Z,100978.03
2022-09-24T16:06:47.971Z,100974.28
2022-09-24T16:09:15.827Z,100979.88
2022-09-24T16:11:43.667Z,100978.66
2022-09-24T16:14:11.369Z,100974.16
2022-09-24T16:16:39.509Z,100980.84
2022-09-24T16:19:09.211Z,100982.63
2022-09-24T16:21:37.370Z,100988.97
2022-09-24T16:24:05.370Z,100977.00
2022-09-24T16:26:34.381Z,100987.00
2022-09-24T16:29:03.455Z,100973.16
2022-09-24T16:31:31.351Z,100977.78
2022-09-24T16:33:59.109Z,100974.63
2022-09-24T16:36:28.182Z,100979.38
2022-09-24T16:38:55.859Z,100975.53
2022-09-24T16:41:23.559Z,100975.00
2022-09-24T16:43:56.234Z,100986.09
2022-09-24T16:46:24.535Z,100971.81
2022-09-24T16:48:52.273Z,100978.16
2022-09-24T16:51:20.591Z,100981.53
2022-09-24T16:53:51.288Z,100982.56
2022-09-24T16:56:19.097Z,100990.47
2022-09-24T16:58:47.688Z,101002.09
2022-09-24T17:01:17.626Z,100993.59
2022-09-24T17:03:46.574Z,101001.38
2022-09-24T17:06:19.318Z,101007.28
2022-09-24T17:09:04.862Z,101004.75
2022-09-24T17:11:34.274Z,101007.00
2022-09-24T17:14:02.479Z,100999.81
2022-09-24T17:16:30.809Z,101002.09
2022-09-24T17:18:58.563Z,101002.34
2022-09-24T17:21:26.266Z,101000.47
2022-09-24T17:23:54.093Z,101008.38
2022-09-24T17:26:23.408Z,101005.38
2022-09-24T17:28:54.926Z,101014.25
2022-09-24T17:31:24.456Z,101017.38
2022-09-24T17:33:57.100Z,101010.19
2022-09-24T17:36:26.210Z,101012.03
2022-09-24T17:38:55.190Z,101014.06
2022-09-24T17:41:23.542Z,101018.88
2022-09-24T17:43:52.922Z,101017.13
2022-09-24T17:46:23.057Z,101032.78
2022-09-24T17:48:53.046Z,101031.34
2022-09-24T17:51:23.067Z,101031.13
2022-09-24T17:53:53.066Z,101036.31
2022-09-24T17:56:22.440Z,101043.84
2022-09-24T17:58:50.339Z,101039.53
2022-09-24T18:01:24.362Z,101040.59
2022-09-24T18:03:54.415Z,101043.94
2022-09-24T18:06:25.568Z,101041.88
2022-09-24T18:08:55.110Z,101050.41
2022-09-24T18:11:24.671Z,101052.75
2022-09-24T18:13:54.518Z,101047.59
2022-09-24T18:16:25.366Z,101056.19
2022-09-24T18:18:53.261Z,101051.66
2022-09-24T18:21:22.921Z,101053.91
2022-09-24T18:23:54.219Z,101057.28
2022-09-24T18:26:24.260Z,101060.06
2022-09-24T18:28:54.198Z,101072.34
2022-09-24T18:31:25.082Z,101062.84
2022-09-24T18:33:54.022Z,101072.44
2022-09-24T18:36:23.838Z,101070.81
2022-09-24T18:38:51.566Z,101066.78
2022-09-24T18:41:22.670Z,101065.28
2022-09-24T18:43:51.071Z,101066.44
2022-09-24T18:46:20.963Z,101078.53
2022-09-24T18:48:53.443Z,101070.41
2022-09-24T18:51:23.938Z,101080.69
2022-09-24T18:53:53.702Z,101085.78
2022-09-24T18:56:21.989Z,101080.91
2022-09-24T18:58:49.737Z,101088.72
2022-09-24T19:01:17.540Z,101085.66
2022-09-24T19:03:45.399Z,101092.69
2022-09-24T19:06:14.425Z,101087.59
2022-09-24T19:08:42.265Z,101090.97
2022-09-24T19:11:13.772Z,101091.56
2022-09-24T19:13:43.345Z,101086.56
2022-09-24T19:16:13.298Z,101107.63
2022-09-24T19:18:42.273Z,101104.03
2022-09-24T19:21:14.171Z,101104.81
2022-09-24T19:23:45.814Z,101105.19
2022-09-24T19:26:15.212Z,101111.94
2022-09-24T19:28:44.111Z,101112.03
2022-09-24T19:31:16.539Z,101115.69
2022-09-24T19:33:45.108Z,101118.00
2022-09-24T19:36:13.141Z,101121.31
2022-09-24T19:38:41.986Z,101129.97
2022-09-24T19:41:15.141Z,101137.66
2022-09-24T19:43:44.053Z,101138.03
2022-09-24T19:46:14.525Z,101132.47
2022-09-24T19:48:44.389Z,101138.44
2022-09-24T19:51:14.366Z,101131.03
2022-09-24T19:53:42.506Z,101132.06
2022-09-24T19:56:13.210Z,101135.91
2022-09-24T19:58:41.217Z,101141.28
2022-09-24T20:01:14.829Z,101133.44
2022-09-24T20:03:44.762Z,101134.88
2022-09-24T20:06:14.521Z,101137.06
2022-09-24T20:08:42.905Z,101148.97
2022-09-24T20:11:14.950Z,101155.13
2022-09-24T20:13:46.603Z,101155.34
2022-09-24T20:16:15.517Z,101154.94
2022-09-24T20:18:43.437Z,101159.72
2022-09-24T20:21:12.709Z,101159.84
2022-09-24T20:23:40.494Z,101156.41
2022-09-24T20:26:26.167Z,101165.41
2022-09-24T20:28:55.298Z,101163.56
2022-09-24T20:31:23.090Z,101173.38
2022-09-24T20:33:51.266Z,101174.31
2022-09-24T20:36:23.898Z,101178.47
2022-09-24T20:38:52.177Z,101180.38
2022-09-24T20:41:21.848Z,101186.22
2022-09-24T20:43:50.060Z,101181.03
2022-09-24T20:46:21.855Z,101190.53
2022-09-24T20:48:49.939Z,101183.63
2022-09-24T20:51:19.902Z,101186.78
2022-09-24T20:53:49.025Z,101186.00
2022-09-24T20:56:17.518Z,101183.13
2022-09-24T20:58:46.923Z,101192.25
2022-09-24T21:01:14.726Z,101187.16
2022-09-24T21:03:45.625Z,101180.44
2022-09-24T21:06:15.280Z,101184.78
2022-09-24T21:08:44.562Z,101180.25
2022-09-24T21:11:13.886Z,101185.03
2022-09-24T21:13:44.643Z,101185.81
2022-09-24T21:16:13.539Z,101186.78
2022-09-24T21:18:44.336Z,101178.91
2022-09-24T21:21:15.377Z,101177.66
2022-09-24T21:23:43.804Z,101183.91
2022-09-24T21:26:13.751Z,101174.03
2022-09-24T21:28:42.457Z,101194.38
2022-09-24T21:31:10.769Z,101178.91
2022-09-24T21:33:38.530Z,101182.56
2022-09-24T21:36:08.938Z,101190.22
2022-09-24T21:38:37.123Z,101182.16
2022-09-24T21:41:08.234Z,101183.69
2022-09-24T21:43:36.362Z,101179.78
2022-09-24T21:46:06.556Z,101183.41
2022-09-24T21:48:35.210Z,101182.56
2022-09-24T21:51:04.401Z,101188.47
2022-09-24T21:53:34.017Z,101184.19
2022-09-24T21:56:02.229Z,101185.53
2022-09-24T21:58:30.721Z,101199.50
2022-09-24T22:01:03.231Z,101188.59
2022-09-24T22:03:32.674Z,101197.63
2022-09-24T22:06:03.593Z,101192.16
2022-09-24T22:08:32.004Z,101200.00
2022-09-24T22:11:05.943Z,101198.75
2022-09-24T22:13:34.665Z,101197.47
2022-09-24T22:16:02.773Z,101197.31
2022-09-24T22:18:31.221Z,101202.16
2022-09-24T22:20:59.091Z,101201.16
2022-09-24T22:23:26.846Z,101200.00
2022-09-24T22:25:56.225Z,101204.19
2022-09-24T22:28:26.660Z,101206.59
2022-09-24T22:30:56.212Z,101198.09
2022-09-24T22:33:42.215Z,101199.25
2022-09-24T22:36:10.322Z,101202.28
2022-09-24T22:38:38.006Z,101193.78
2022-09-24T22:41:08.100Z,101205.09
2022-09-24T22:43:37.595Z,101201.72
2022-09-24T22:46:07.294Z,101198.53
2022-09-24T22:48:35.545Z,101199.81
2022-09-24T22:51:04.798Z,101198.09
2022-09-24T22:53:34.707Z,101185.97
2022-09-24T22:56:07.991Z,101192.38
2022-09-24T22:58:38.060Z,101192.72
2022-09-24T23:01:10.437Z,101188.13
2022-09-24T23:03:39.377Z,101198.81
2022-09-24T23:06:08.710Z,101197.41
2022-09-24T23:08:37.658Z,101190.75
2022-09-24T23:11:07.899Z,101193.53
2022-09-24T23:13:38.010Z,101191.00
2022-09-24T23:16:11.697Z,101191.78
2022-09-24T23:18:40.149Z,101195.00
2022-09-24T23:21:09.478Z,101191.00
2022-09-24T23:23:37.374Z,101190.75
2022-09-24T23:26:07.106Z,101187.72
2022-09-24T23:28:35.603Z,101179.75
2022-09-24T23:31:05.370Z,101179.41
2022-09-24T23:33:34.306Z,101172.31
2022-09-24T23:36:02.961Z,101177.22
2022-09-24T23:38:31.337Z,101175.84
2022-09-24T23:41:00.674Z,101173.69
2022-09-24T23:43:29.101Z,101169.00
2022-09-24T23:45:57.939Z,101165.38
2022-09-24T23:48:27.114Z,101161.91
2022-09-24T23:50:55.487Z,101166.25
2022-09-24T23:53:23.234Z,101163.81
2022-09-24T23:55:51.835Z,101169.03
2022-09-24T23:58:21.419Z,101158.69
